עמוד ראשי
METAR-TAF:

METAR-TAF

שדות תעופה :

סלוניקי, יוון

נמל התעופה הבינלאומי סלוניקי מקדוניה

קו רוחב: 40-31N, קו אורך: 022-58E, גובה: 8מטר

תצפית מזג אוויר נוכחית

הדו"ח נערך לפני 33דקות, בשעה 03:50 UTC
רוח 2קשר עם כיוונים משתנים
טמפרטורת 2 צלסיוס
לחות 87%
לחץ 1017 hPa
ראות 10 קילומטר או יותר
ללא עננים שבסיסם נמוך מ 5000 רגל או קומולונימבוס

METAR: LGTS 220350Z VRB02KT CAVOK 02/M00 Q1017 NOSIG

זמן: 06:23 (04:23 UTC)

תחזית

הדו"ח נערך לפני 5 שעות ו 23דקות, בשעה 23:00 UTC
תחזית בתוקף מ 22 ב 00 UTC עד 22 ב 24 UTC
רוח 3קשר עם כיוונים משתנים
ראות 10 קילומטר או יותר
מעט עננים בגובה 3000רגל
יעשה מ
22 ב 02 UTC עד 22 ב 04 UTC
רוח 12קשר מכיוון צפון/צפון-מערב
יעשה מ
22 ב 18 UTC עד 22 ב 20 UTC
רוח 15קשר מכיוון מזרח/דרום-מזרח

TAF: LGTS 212300Z 2200/2224 VRB03KT 9999 FEW030 BECMG 2202/2204 34012KT BECMG 2218/2220 12015KT

תצפיות ותחזיות מזג אוויר לגבי יותר מ- 4,000 שדות תעופה ברחבי העולם. דוחות METAR ו- TAF.

התחנות הזמינות מסומנות בנקודות צהובות ואדומות על גבי המפה.

העבר את העכבר לנקודה הצבעונית על מנת לראות את שם התחנה.

לאחר מכן, לחץ כדי לראות את תוכן ואת תחזיות מזג האוויר.

כדי לשנות את המפה: לחץ על הכפתורים הירוקים עם הפלוס השחור כדי להתקרב; על הכפתור הירוק עם המקף כדי להתרחק; או בחיצים הירוקים למפות סמוכות.


METAR-TAF: